Time;durP1;ratioP1;P1;durP2;ratioP2;P2;SDS_P1;SDS_P2;PMS_P1;PMS_P2;Temp;Humidity;BMP_temperature;BMP_pressure;BME280_temperature;BME280_humidity;BME280_pressure;Samples;Min_cycle;Max_cycle;Signal;HPM_P1;HPM_P2
2023/04/16 00:00:15;;;;;;;17.35;10.90;;;;;;;10.47;42.99;101582.25;5072395;28;20479;-83
2023/04/16 00:02:44;;;;;;;14.70;11.45;;;;;;;10.47;43.53;101587.72;5073075;28;20051;-82
2023/04/16 00:05:13;;;;;;;15.48;11.43;;;;;;;10.46;43.07;101580.50;5074128;28;20550;-83
2023/04/16 00:07:41;;;;;;;17.45;10.82;;;;;;;10.44;43.63;101577.88;5071577;28;20048;-82
2023/04/16 00:10:09;;;;;;;19.23;12.15;;;;;;;10.45;43.62;101582.38;5087463;28;20051;-82
2023/04/16 00:12:39;;;;;;;17.05;11.18;;;;;;;10.47;43.58;101585.88;5072337;28;20063;-82
2023/04/16 00:15:08;;;;;;;17.02;11.13;;;;;;;10.46;43.32;101575.03;5073988;28;20131;-83
2023/04/16 00:17:35;;;;;;;16.75;11.20;;;;;;;10.44;43.20;101572.41;5065308;28;20512;-82
2023/04/16 00:20:04;;;;;;;17.08;11.38;;;;;;;10.43;43.38;101580.72;5072104;28;20110;-83
2023/04/16 00:22:32;;;;;;;17.25;11.75;;;;;;;10.43;43.74;101575.25;5072429;28;20052;-82
2023/04/16 00:25:00;;;;;;;18.27;11.52;;;;;;;10.43;43.51;101578.00;5073577;28;20534;-82
2023/04/16 00:27:28;;;;;;;16.67;11.70;;;;;;;10.42;43.43;101585.31;5068009;28;20475;-82
2023/04/16 00:29:57;;;;;;;18.48;12.07;;;;;;;10.42;43.51;101582.59;5068618;28;20067;-83
2023/04/16 00:32:25;;;;;;;15.68;10.52;;;;;;;10.41;43.85;101579.97;5067890;28;20040;-82
2023/04/16 00:34:53;;;;;;;16.45;11.10;;;;;;;10.40;43.36;101579.09;5073115;28;20066;-82
2023/04/16 00:37:21;;;;;;;15.77;10.77;;;;;;;10.40;43.83;101589.19;5087980;28;20079;-81
2023/04/16 00:39:50;;;;;;;15.90;11.52;;;;;;;10.41;43.98;101591.78;5059798;28;20060;-84
2023/04/16 00:42:18;;;;;;;13.88;10.18;;;;;;;10.38;43.80;101586.56;5074856;28;20059;-83
2023/04/16 00:44:46;;;;;;;13.90;10.05;;;;;;;10.38;43.65;101586.56;5071505;28;20054;-84
2023/04/16 00:47:19;;;;;;;15.10;10.70;;;;;;;10.39;43.58;101585.59;5064996;28;20044;-84
2023/04/16 00:49:47;;;;;;;14.05;9.48;;;;;;;10.38;44.06;101585.69;5085976;28;20040;-84
2023/04/16 00:52:15;;;;;;;16.40;9.90;;;;;;;10.39;44.06;101584.69;5072433;28;20055;-83
2023/04/16 00:54:44;;;;;;;15.23;9.95;;;;;;;10.38;43.81;101589.31;5064082;28;20040;-84
2023/04/16 00:57:14;;;;;;;15.55;10.00;;;;;;;10.39;43.97;101593.78;5074547;28;20046;-84
2023/04/16 00:59:42;;;;;;;13.77;9.80;;;;;;;10.38;44.31;101591.16;5078447;28;20549;-84
2023/04/16 01:02:10;;;;;;;14.38;9.75;;;;;;;10.38;43.96;101591.16;5093926;28;20055;-84
2023/04/16 01:04:39;;;;;;;12.88;9.05;;;;;;;10.39;43.71;101588.31;5076512;28;20063;-83
2023/04/16 01:07:07;;;;;;;14.20;8.85;;;;;;;10.39;44.26;101590.19;5078437;28;20051;-83
2023/04/16 01:09:35;;;;;;;14.15;8.48;;;;;;;10.37;44.00;101586.69;5072598;28;20101;-84
2023/04/16 01:12:03;;;;;;;13.15;8.77;;;;;;;10.38;44.18;101591.16;5079503;28;20047;-83
2023/04/16 01:14:35;;;;;;;13.82;8.60;;;;;;;10.38;44.10;101594.78;5077079;28;20692;-83
2023/04/16 01:17:03;;;;;;;11.73;7.43;;;;;;;10.36;44.25;101594.00;5083454;28;20048;-83
2023/04/16 01:19:31;;;;;;;10.48;6.88;;;;;;;10.37;43.80;101597.63;5081887;28;20036;-83
2023/04/16 01:22:00;;;;;;;11.13;7.00;;;;;;;10.37;44.33;101603.97;5081638;28;20047;-83
2023/04/16 01:24:28;;;;;;;10.38;6.95;;;;;;;10.35;43.91;101603.19;5093047;28;20040;-82
2023/04/16 01:26:57;;;;;;;10.60;7.05;;;;;;;10.36;44.00;101595.88;5090013;28;20044;-83
2023/04/16 01:29:25;;;;;;;11.13;6.97;;;;;;;10.35;43.89;101605.06;5091226;28;20059;-83
2023/04/16 01:31:55;;;;;;;11.85;6.53;;;;;;;10.33;44.28;101596.97;5089438;28;20642;-84
2023/04/16 01:34:31;;;;;;;10.40;6.18;;;;;;;10.33;44.29;101607.03;5067418;28;20044;-82
2023/04/16 01:37:00;;;;;;;8.75;5.60;;;;;;;10.33;44.00;101607.03;5081359;28;20097;-83
2023/04/16 01:39:28;;;;;;;9.25;5.85;;;;;;;10.32;44.28;101610.78;5076977;28;20048;-83
2023/04/16 01:41:57;;;;;;;8.52;5.15;;;;;;;10.31;43.90;101609.03;5071983;28;20123;-83
2023/04/16 01:44:25;;;;;;;8.55;5.35;;;;;;;10.30;44.04;101607.28;5073042;28;20071;-82
2023/04/16 01:46:53;;;;;;;8.80;5.28;;;;;;;10.29;43.91;101600.94;5059456;28;20063;-82
2023/04/16 01:49:21;;;;;;;8.18;4.95;;;;;;;10.29;44.06;101605.53;5066408;28;20426;-82
2023/04/16 01:51:50;;;;;;;9.60;5.10;;;;;;;10.29;44.24;101602.78;5068728;28;20076;-82
2023/04/16 01:54:19;;;;;;;7.93;4.75;;;;;;;10.30;44.00;101612.75;5097060;28;20099;-82
2023/04/16 01:56:47;;;;;;;11.10;5.50;;;;;;;10.28;44.24;101609.25;5075860;28;20055;-82
2023/04/16 01:59:15;;;;;;;8.43;5.18;;;;;;;10.27;44.34;101608.38;5076987;28;20032;-82
2023/04/16 02:01:43;;;;;;;11.95;5.93;;;;;;;10.27;44.12;101604.75;5069284;28;20056;-82
2023/04/16 02:04:12;;;;;;;9.48;5.50;;;;;;;10.28;44.35;101611.97;5098787;28;20032;-82
2023/04/16 02:06:43;;;;;;;12.98;6.15;;;;;;;10.27;44.73;101610.22;5082150;28;20074;-82
2023/04/16 02:09:13;;;;;;;10.02;6.03;;;;;;;10.23;44.42;101607.72;5071859;28;20062;-82
2023/04/16 02:11:43;;;;;;;10.50;6.20;;;;;;;10.27;44.66;101607.50;5076398;28;20047;-82
2023/04/16 02:14:13;;;;;;;10.63;6.85;;;;;;;10.24;43.96;101603.13;5078495;28;20127;-82
2023/04/16 02:16:44;;;;;;;10.23;6.60;;;;;;;10.22;44.22;101603.25;5073867;28;20123;-82
2023/04/16 02:19:21;;;;;;;11.68;6.28;;;;;;;10.23;44.28;101609.59;5074929;28;20395;-82
2023/04/16 02:21:51;;;;;;;10.35;7.10;;;;;;;10.26;44.46;101608.47;5074709;28;20051;-82
2023/04/16 02:24:21;;;;;;;12.13;7.60;;;;;;;10.23;44.75;101599.50;5077902;28;20108;-82
2023/04/16 02:26:50;;;;;;;13.18;7.68;;;;;;;10.24;44.63;101603.13;5064156;28;20052;-82
2023/04/16 02:29:18;;;;;;;14.77;8.77;;;;;;;10.23;44.84;101604.13;5075440;28;20097;-82
2023/04/16 02:31:53;;;;;;;13.38;8.65;;;;;;;10.22;44.47;101607.84;5059665;28;20069;-83
2023/04/16 02:34:21;;;;;;;14.82;8.15;;;;;;;10.22;44.54;101597.78;5066011;28;20053;-83
2023/04/16 02:36:50;;;;;;;15.65;10.05;;;;;;;10.24;44.74;101608.59;5055843;28;20131;-83
2023/04/16 02:39:18;;;;;;;17.50;10.38;;;;;;;10.23;44.68;101604.13;5071129;28;20044;-83
2023/04/16 02:41:46;;;;;;;15.15;10.52;;;;;;;10.23;44.96;101604.97;5074847;28;20070;-82
2023/04/16 02:44:15;;;;;;;17.98;10.40;;;;;;;10.26;44.52;101605.75;5075510;28;20066;-82
2023/04/16 02:46:43;;;;;;;19.40;10.68;;;;;;;10.23;45.10;101606.88;5084752;28;20060;-83
2023/04/16 02:49:11;;;;;;;16.98;10.57;;;;;;;10.22;44.85;101608.72;5074678;28;20604;-83
2023/04/16 02:51:39;;;;;;;16.58;10.13;;;;;;;10.22;44.62;101606.00;5070813;28;20044;-82
2023/04/16 02:54:07;;;;;;;17.83;11.65;;;;;;;10.21;44.69;101601.50;5073613;28;20081;-84
2023/04/16 02:56:35;;;;;;;19.60;11.07;;;;;;;10.22;45.12;101605.13;5073162;28;20136;-83
2023/04/16 02:59:03;;;;;;;17.55;11.23;;;;;;;10.20;44.61;101602.50;5084981;28;20040;-83
2023/04/16 03:01:32;;;;;;;19.70;11.95;;;;;;;10.22;45.24;101607.84;5067326;28;20159;-83
2023/04/16 03:04:00;;;;;;;19.95;11.90;;;;;;;10.21;44.70;101606.09;5083746;28;20511;-82
2023/04/16 03:06:28;;;;;;;21.65;12.88;;;;;;;10.21;44.70;101617.03;5057964;28;20131;-81
2023/04/16 03:08:57;;;;;;;20.80;13.43;;;;;;;10.20;44.90;101612.56;5057464;28;20101;-82
2023/04/16 03:11:25;;;;;;;18.35;12.05;;;;;;;10.20;45.06;101609.81;5073219;28;20040;-84
2023/04/16 03:13:52;;;;;;;19.40;12.30;;;;;;;10.18;45.10;101609.94;5092281;28;20044;-82
2023/04/16 03:16:20;;;;;;;21.77;13.02;;;;;;;10.17;45.17;101608.19;5059170;28;20040;-82
2023/04/16 03:18:50;;;;;;;22.00;13.23;;;;;;;10.19;45.34;101619.88;5073697;28;20136;-82
2023/04/16 03:21:18;;;;;;;19.63;12.43;;;;;;;10.17;44.96;101619.13;5068564;28;20414;-81
2023/04/16 03:23:46;;;;;;;19.52;12.07;;;;;;;10.18;45.41;101625.47;5074763;28;20051;-81
2023/04/16 03:26:14;;;;;;;22.25;13.48;;;;;;;10.16;45.46;101633.78;5072523;28;20032;-82
2023/04/16 03:28:42;;;;;;;20.60;12.77;;;;;;;10.17;45.58;101623.72;5070241;28;20044;-81
2023/04/16 03:31:10;;;;;;;18.88;12.27;;;;;;;10.16;45.12;101625.56;5073920;28;20511;-83
2023/04/16 03:33:39;;;;;;;19.88;12.95;;;;;;;10.18;45.54;101628.19;5071575;28;20048;-82
2023/04/16 03:36:10;;;;;;;21.00;12.85;;;;;;;10.20;45.37;101628.97;5083091;28;20694;-81
2023/04/16 03:38:38;;;;;;;20.30;12.65;;;;;;;10.18;45.66;101630.94;5073432;28;20048;-83
2023/04/16 03:41:06;;;;;;;21.40;12.60;;;;;;;10.17;45.28;101630.06;5070866;28;20048;-83
2023/04/16 03:43:34;;;;;;;20.35;12.60;;;;;;;10.18;45.33;101626.34;5058778;28;20048;-83
2023/04/16 03:46:02;;;;;;;20.90;12.55;;;;;;;10.17;45.56;101630.06;5070476;28;20048;-82
2023/04/16 03:48:30;;;;;;;21.92;11.85;;;;;;;10.18;45.86;101631.81;5087406;28;20503;-82
2023/04/16 03:50:58;;;;;;;22.75;13.68;;;;;;;10.17;45.79;101635.53;5061586;28;20048;-82
2023/04/16 03:53:28;;;;;;;22.83;13.77;;;;;;;10.18;45.53;101633.66;5058837;28;20052;-82
2023/04/16 03:55:56;;;;;;;22.55;12.98;;;;;;;10.17;45.48;101629.19;5084341;28;20445;-83
2023/04/16 03:58:24;;;;;;;24.52;15.10;;;;;;;10.17;45.40;101618.25;5070990;28;20480;-83
2023/04/16 04:00:53;;;;;;;22.05;13.73;;;;;;;10.18;45.92;101630.94;5057705;28;20059;-83
2023/04/16 04:03:22;;;;;;;24.67;14.32;;;;;;;10.18;45.67;101630.94;5072973;28;20040;-83
2023/04/16 04:05:50;;;;;;;24.67;14.82;;;;;;;10.16;45.59;101622.84;5054119;28;20128;-82
2023/04/16 04:08:28;;;;;;;22.05;13.80;;;;;;;10.17;45.61;101621.84;5064116;28;20192;-84
2023/04/16 04:10:56;;;;;;;21.75;13.45;;;;;;;10.17;45.52;101624.59;5063287;28;20051;-82
2023/04/16 04:13:25;;;;;;;21.80;14.02;;;;;;;10.16;46.08;101621.97;5072621;28;20041;-83
2023/04/16 04:15:53;;;;;;;22.63;13.82;;;;;;;10.16;45.45;101631.03;5083820;22;20048;-77
2023/04/16 04:18:22;;;;;;;22.25;13.52;;;;;;;10.16;45.94;101630.16;5075471;28;20148;-77
2023/04/16 04:20:50;;;;;;;20.95;12.77;;;;;;;10.15;46.02;101625.72;5052977;28;20638;-79
2023/04/16 04:23:20;;;;;;;23.33;13.88;;;;;;;10.14;45.94;101630.31;5053549;28;20063;-78
2023/04/16 04:25:50;;;;;;;22.02;13.27;;;;;;;10.15;46.05;101634.75;5048443;28;20072;-78
2023/04/16 04:28:18;;;;;;;19.75;12.70;;;;;;;10.13;45.90;101636.75;5067323;28;20051;-78
2023/04/16 04:30:46;;;;;;;20.85;12.77;;;;;;;10.12;45.69;101634.13;5052212;28;20489;-79
2023/04/16 04:33:14;;;;;;;19.20;12.25;;;;;;;10.12;45.78;101639.59;5060924;28;20095;-79
2023/04/16 04:35:42;;;;;;;22.67;12.60;;;;;;;10.12;46.16;101645.94;5061734;28;20063;-79
2023/04/16 04:38:10;;;;;;;20.98;12.65;;;;;;;10.12;45.78;101654.16;5050229;28;20749;-78
2023/04/16 04:40:41;;;;;;;21.80;12.77;;;;;;;10.11;45.80;101649.66;5049267;28;20080;-79
2023/04/16 04:43:10;;;;;;;20.13;12.80;;;;;;;10.13;45.80;101652.28;5039285;28;20037;-78
2023/04/16 04:45:38;;;;;;;20.80;12.23;;;;;;;10.12;46.26;101651.41;5067092;28;20047;-79
2023/04/16 04:48:06;;;;;;;18.90;11.77;;;;;;;10.13;46.20;101649.56;5053139;28;20036;-79
2023/04/16 04:50:34;;;;;;;21.60;12.80;;;;;;;10.12;46.21;101656.00;5049248;28;20076;-78
2023/04/16 04:53:06;;;;;;;22.02;12.52;;;;;;;10.13;46.20;101660.50;5049809;28;20981;-79
2023/04/16 04:55:34;;;;;;;20.58;12.40;;;;;;;10.12;46.29;101656.88;5068398;28;20044;-79
2023/04/16 04:58:03;;;;;;;22.77;12.88;;;;;;;10.14;46.27;101654.06;5049663;28;20045;-79
2023/04/16 05:00:33;;;;;;;21.67;13.43;;;;;;;10.14;45.98;101660.41;5045275;28;20124;-79
2023/04/16 05:03:02;;;;;;;23.25;13.65;;;;;;;10.15;46.15;101661.28;5068036;28;20513;-79
2023/04/16 05:05:31;;;;;;;21.90;13.82;;;;;;;10.12;46.48;101662.38;5046037;28;20041;-78
2023/04/16 05:07:58;;;;;;;24.70;14.80;;;;;;;10.13;46.04;101663.25;5062438;28;20037;-78
2023/04/16 05:10:27;;;;;;;24.98;13.85;;;;;;;10.12;46.11;101659.63;5067882;28;20032;-78
2023/04/16 05:12:54;;;;;;;24.13;14.27;;;;;;;10.13;46.22;101664.13;5070337;28;20041;-78
2023/04/16 05:15:22;;;;;;;25.50;14.70;;;;;;;10.12;46.66;101670.56;5051988;28;20105;-78
2023/04/16 05:17:51;;;;;;;22.73;14.25;;;;;;;10.13;46.18;101677.78;5072820;28;20099;-79
2023/04/16 05:20:20;;;;;;;25.42;15.45;;;;;;;10.12;46.52;101676.03;5073132;28;20504;-79
2023/04/16 05:22:48;;;;;;;24.60;15.32;;;;;;;10.12;46.26;101678.78;5050715;28;20110;-80
2023/04/16 05:25:16;;;;;;;26.05;14.70;;;;;;;10.11;46.40;101677.03;5070386;28;20047;-79
2023/04/16 05:27:44;;;;;;;24.25;13.90;;;;;;;10.12;46.47;101686.09;5047601;28;20055;-77
2023/04/16 05:30:12;;;;;;;24.83;15.02;;;;;;;10.13;46.39;101682.38;5064987;28;20072;-78
2023/04/16 05:32:40;;;;;;;25.00;13.98;;;;;;;10.14;46.32;101689.59;5052741;28;20048;-79
2023/04/16 05:35:10;;;;;;;21.95;13.48;;;;;;;10.14;46.91;101690.50;5053550;28;20071;-78
2023/04/16 05:37:38;;;;;;;24.80;15.02;;;;;;;10.13;46.72;101693.31;5053087;28;20135;-78
2023/04/16 05:40:07;;;;;;;23.27;13.95;;;;;;;10.14;46.46;101695.06;5049485;28;20048;-78
2023/04/16 05:42:35;;;;;;;24.55;14.13;;;;;;;10.13;47.07;101693.31;5052740;28;20103;-78
2023/04/16 05:45:04;;;;;;;25.10;13.52;;;;;;;10.13;47.09;101698.78;5060086;28;20071;-77
2023/04/16 05:47:32;;;;;;;23.75;14.48;;;;;;;10.14;46.75;101703.28;5059211;28;20045;-79
2023/04/16 05:49:59;;;;;;;20.13;13.27;;;;;;;10.14;46.63;101706.03;5078769;28;20511;-79
2023/04/16 05:52:28;;;;;;;25.40;13.80;;;;;;;10.15;47.24;101708.63;5057509;28;20075;-76
2023/04/16 05:54:56;;;;;;;24.73;14.77;;;;;;;10.14;47.24;101714.22;5058986;28;20341;-77
2023/04/16 05:57:24;;;;;;;25.05;14.70;;;;;;;10.15;47.04;101710.50;5054530;28;20115;-77
2023/04/16 05:59:52;;;;;;;23.45;13.38;;;;;;;10.15;47.21;101714.09;5054399;28;20126;-77
2023/04/16 06:02:20;;;;;;;22.48;13.18;;;;;;;10.16;46.82;101714.97;5072268;28;20041;-77
2023/04/16 06:04:48;;;;;;;24.20;13.90;;;;;;;10.15;46.89;101715.97;5054125;28;20048;-77
2023/04/16 06:07:16;;;;;;;25.48;13.80;;;;;;;10.15;47.37;101722.28;5053462;28;20049;-78
2023/04/16 06:09:45;;;;;;;22.65;13.68;;;;;;;10.16;46.77;101720.44;5055436;28;20118;-78
2023/04/16 06:12:13;;;;;;;22.13;13.88;;;;;;;10.14;47.39;101720.56;5070500;28;20234;-78
2023/04/16 06:14:41;;;;;;;25.98;14.18;;;;;;;10.14;47.00;101728.78;5072230;28;20103;-79
2023/04/16 06:17:09;;;;;;;26.17;14.05;;;;;;;10.15;46.89;101725.03;5074146;28;20049;-80
2023/04/16 06:19:37;;;;;;;23.83;13.85;;;;;;;10.15;46.99;101732.41;5050214;28;20048;-79
2023/04/16 06:22:05;;;;;;;24.08;13.93;;;;;;;10.15;47.04;101729.66;5067577;28;20544;-80
2023/04/16 06:24:33;;;;;;;22.95;13.70;;;;;;;10.16;47.44;101731.38;5054003;28;20048;-80
2023/04/16 06:27:02;;;;;;;23.38;13.80;;;;;;;10.16;47.08;101728.63;5055050;28;20043;-79
2023/04/16 06:29:30;;;;;;;21.55;12.98;;;;;;;10.14;47.32;101733.38;5054879;28;20053;-79
2023/04/16 06:32:08;;;;;;;22.00;13.02;;;;;;;10.14;46.96;101739.72;5050770;28;20045;-78
2023/04/16 06:34:37;;;;;;;23.55;13.95;;;;;;;10.16;47.52;101745.06;5068027;28;20512;-80
2023/04/16 06:37:05;;;;;;;22.60;14.00;;;;;;;10.14;47.54;101742.47;5049716;28;20049;-79
2023/04/16 06:39:36;;;;;;;21.98;14.18;;;;;;;10.14;47.11;101747.94;5053394;28;20052;-79
2023/04/16 06:42:05;;;;;;;23.52;14.45;;;;;;;10.16;47.39;101748.66;5054919;28;20056;-79
2023/04/16 06:44:33;;;;;;;22.48;13.43;;;;;;;10.14;47.29;101749.78;5055742;28;20770;-79
2023/04/16 06:47:01;;;;;;;21.55;13.40;;;;;;;10.14;47.54;101752.53;5053845;28;20053;-80
2023/04/16 06:49:29;;;;;;;21.85;13.27;;;;;;;10.15;47.24;101754.28;5052278;28;20054;-79
2023/04/16 06:51:57;;;;;;;20.60;13.38;;;;;;;10.14;47.81;101749.78;5054070;28;20082;-79
2023/04/16 06:54:25;;;;;;;21.17;13.10;;;;;;;10.14;47.50;101758.00;5054732;28;20033;-79
2023/04/16 06:56:53;;;;;;;20.13;12.73;;;;;;;10.13;47.63;101759.84;5054476;28;20040;-79
2023/04/16 06:59:22;;;;;;;17.98;12.50;;;;;;;10.15;47.53;101759.75;5056567;28;20047;-79
2023/04/16 07:01:51;;;;;;;18.35;11.57;;;;;;;10.13;47.63;101753.50;5054267;28;20585;-79
2023/04/16 07:04:19;;;;;;;18.88;11.38;;;;;;;10.13;47.52;101759.84;5056130;28;20041;-79
2023/04/16 07:06:47;;;;;;;16.55;11.00;;;;;;;10.13;47.40;101761.72;5053065;28;20041;-79
2023/04/16 07:09:16;;;;;;;16.02;10.65;;;;;;;10.12;47.92;101763.56;5076495;28;20064;-80
2023/04/16 07:11:44;;;;;;;17.35;10.45;;;;;;;10.12;47.58;101765.44;5075619;28;20111;-79
2023/04/16 07:14:12;;;;;;;15.52;9.80;;;;;;;10.13;47.88;101768.06;5059328;28;20033;-79
2023/04/16 07:16:41;;;;;;;17.63;10.68;;;;;;;10.15;47.41;101770.69;5071458;28;20082;-79
2023/04/16 07:19:09;;;;;;;15.95;10.15;;;;;;;10.14;47.27;101766.19;5050549;28;20269;-79
2023/04/16 07:21:38;;;;;;;15.00;9.48;;;;;;;10.14;47.81;101768.94;5073315;28;20052;-80
2023/04/16 07:24:06;;;;;;;13.88;9.20;;;;;;;10.13;47.91;101769.91;5078349;28;20029;-81
2023/04/16 07:26:33;;;;;;;14.13;9.18;;;;;;;10.14;47.79;101777.13;5059410;28;20189;-79
2023/04/16 07:29:01;;;;;;;15.40;9.48;;;;;;;10.15;47.65;101774.25;5061904;28;20396;-79
2023/04/16 07:31:29;;;;;;;15.77;9.52;;;;;;;10.14;47.47;101777.13;5058203;28;20064;-76
2023/04/16 07:33:59;;;;;;;15.38;9.63;;;;;;;10.16;47.42;101777.88;5060716;28;20037;-79
2023/04/16 07:36:27;;;;;;;16.17;9.77;;;;;;;10.14;47.80;101775.28;5051606;28;20503;-79
2023/04/16 07:38:56;;;;;;;15.23;8.70;;;;;;;10.17;47.79;101772.31;5067867;28;20396;-79
2023/04/16 07:41:24;;;;;;;15.98;10.02;;;;;;;10.17;47.94;101768.69;5053422;28;20504;-78
2023/04/16 07:43:52;;;;;;;14.75;9.90;;;;;;;10.19;47.49;101774.94;5051976;28;20435;-79
2023/04/16 07:46:19;;;;;;;14.90;9.35;;;;;;;10.20;47.45;101776.69;5057325;28;20466;-78
2023/04/16 07:48:47;;;;;;;15.90;10.00;;;;;;;10.22;47.74;101782.94;5056726;28;20054;-79
2023/04/16 07:51:17;;;;;;;17.67;10.07;;;;;;;10.27;47.91;101782.59;5052090;28;20044;-79
2023/04/16 07:53:45;;;;;;;15.65;9.68;;;;;;;10.27;47.21;101786.22;5069095;28;20503;-78
2023/04/16 07:56:13;;;;;;;14.48;9.88;;;;;;;10.29;47.50;101795.19;5046691;28;20076;-78
2023/04/16 07:58:41;;;;;;;16.40;10.55;;;;;;;10.31;47.18;101786.88;5051599;28;20063;-79
2023/04/16 08:01:09;;;;;;;16.05;9.85;;;;;;;10.32;47.14;101797.69;5068068;28;20056;-80
2023/04/16 08:03:37;;;;;;;18.50;11.68;;;;;;;10.34;47.55;101797.56;5053849;28;20049;-80
2023/04/16 08:06:05;;;;;;;18.27;10.85;;;;;;;10.35;47.60;101800.22;5053249;28;20068;-80
2023/04/16 08:08:34;;;;;;;17.02;11.73;;;;;;;10.37;47.06;101806.47;5053938;28;20053;-79
2023/04/16 08:11:02;;;;;;;18.33;12.45;;;;;;;10.38;47.32;101807.34;5053184;28;20534;-79
2023/04/16 08:13:30;;;;;;;20.38;12.93;;;;;;;10.40;47.39;101805.38;5054681;28;20068;-80
2023/04/16 08:16:00;;;;;;;18.75;12.30;;;;;;;10.41;47.21;101815.31;5049347;28;20052;-79
2023/04/16 08:18:28;;;;;;;18.77;11.98;;;;;;;10.41;47.35;101821.66;5073104;28;20441;-81
2023/04/16 08:20:56;;;;;;;20.50;12.25;;;;;;;10.42;47.02;101817.94;5050047;28;20053;-80
2023/04/16 08:23:24;;;;;;;19.48;12.98;;;;;;;10.43;47.47;101825.16;5072041;28;20067;-80
2023/04/16 08:25:54;;;;;;;20.17;12.57;;;;;;;10.48;47.80;101824.84;5051031;28;20071;-78
2023/04/16 08:28:22;;;;;;;16.45;10.65;;;;;;;10.47;47.33;101821.25;5052526;28;20059;-78
2023/04/16 08:30:50;;;;;;;19.42;11.77;;;;;;;10.48;47.24;101825.69;5054949;28;20079;-79
2023/04/16 08:33:18;;;;;;;18.73;11.65;;;;;;;10.49;47.19;101827.44;5054763;28;20139;-78
2023/04/16 08:35:45;;;;;;;15.93;11.50;;;;;;;10.52;47.55;101826.38;5071266;28;20040;-79
2023/04/16 08:38:13;;;;;;;18.20;11.95;;;;;;;10.55;47.41;101826.19;5058089;28;20098;-79
2023/04/16 08:40:42;;;;;;;19.35;12.48;;;;;;;10.57;47.38;101836.03;5053970;28;20041;-79
2023/04/16 08:43:13;;;;;;;20.55;11.98;;;;;;;10.60;47.23;101832.19;5055919;28;20048;-79
2023/04/16 08:45:42;;;;;;;17.75;11.63;;;;;;;10.61;47.12;101831.22;5054358;28;20131;-78
2023/04/16 08:48:11;;;;;;;18.30;11.93;;;;;;;10.63;47.29;101833.84;5055545;28;20316;-79
2023/04/16 08:50:41;;;;;;;19.90;12.15;;;;;;;10.66;47.02;101830.88;5055245;28;20048;-78
2023/04/16 08:53:15;;;;;;;18.80;11.90;;;;;;;10.68;46.95;101828.91;5056534;28;20048;-79
2023/04/16 08:55:47;;;;;;;17.27;11.85;;;;;;;10.68;47.28;101832.50;5052543;28;20068;-80
2023/04/16 08:58:19;;;;;;;16.42;10.80;;;;;;;10.71;47.25;101837.78;5051222;28;20071;-80
2023/04/16 09:00:48;;;;;;;17.17;11.55;;;;;;;10.70;47.40;101837.88;5051245;28;20102;-79
2023/04/16 09:03:18;;;;;;;15.65;10.98;;;;;;;10.74;46.82;101831.19;5050202;28;20519;-79
2023/04/16 09:05:47;;;;;;;16.55;10.90;;;;;;;10.75;47.30;101833.81;5052532;28;20047;-77
2023/04/16 09:08:17;;;;;;;18.10;11.02;;;;;;;10.78;47.38;101841.81;5054225;28;20047;-79
2023/04/16 09:10:45;;;;;;;16.05;10.73;;;;;;;10.82;47.43;101834.22;5052382;28;20064;-79
2023/04/16 09:13:15;;;;;;;15.70;10.88;;;;;;;10.85;47.39;101836.75;5051437;28;20114;-78
2023/04/16 09:15:44;;;;;;;16.17;10.85;;;;;;;10.91;46.72;101839.03;5054627;28;20052;-78
2023/04/16 09:18:12;;;;;;;16.55;11.20;;;;;;;10.94;47.21;101847.03;5056610;28;20041;-78
2023/04/16 09:20:40;;;;;;;15.05;10.45;;;;;;;10.97;47.15;101849.56;5060940;28;23099;-78
2023/04/16 09:23:09;;;;;;;16.52;11.02;;;;;;;11.02;46.67;101844.59;5080857;28;20045;-78
2023/04/16 09:25:38;;;;;;;17.45;11.60;;;;;;;11.04;47.08;101839.91;5075641;28;20051;-78
2023/04/16 09:28:06;;;;;;;15.23;11.30;;;;;;;11.08;46.57;101846.88;5054640;28;20043;-77
2023/04/16 09:30:36;;;;;;;17.05;11.25;;;;;;;11.12;46.93;101844.81;5055859;28;20500;-79
2023/04/16 09:33:20;;;;;;;16.15;11.52;;;;;;;11.19;46.73;101844.22;5057237;28;20071;-79
2023/04/16 09:35:50;;;;;;;15.85;11.20;;;;;;;11.21;46.52;101844.13;5055163;28;20093;-80
2023/04/16 09:38:19;;;;;;;17.00;11.45;;;;;;;11.23;46.77;101853.97;5071089;28;20044;-79
2023/04/16 09:40:47;;;;;;;17.48;11.88;;;;;;;11.28;46.36;101853.63;5053419;28;20131;-79
2023/04/16 09:43:17;;;;;;;18.35;12.02;;;;;;;11.32;46.28;101852.41;5056130;28;20484;-79
2023/04/16 09:45:49;;;;;;;16.85;12.20;;;;;;;11.38;46.37;101853.81;5057382;28;20151;-78
2023/04/16 09:48:28;;;;;;;17.88;11.85;;;;;;;11.40;46.13;101863.66;5056091;28;20041;-78
2023/04/16 09:50:56;;;;;;;18.27;12.00;;;;;;;11.44;46.40;101864.31;5053337;28;20486;-79
2023/04/16 09:53:25;;;;;;;17.88;12.35;;;;;;;11.48;46.17;101861.22;5057085;28;20052;-78
2023/04/16 09:55:56;;;;;;;17.27;11.95;;;;;;;11.53;45.97;101858.16;5055094;28;20063;-78
2023/04/16 09:58:24;;;;;;;16.00;11.52;;;;;;;11.58;46.01;101866.88;5056685;28;20044;-79
2023/04/16 10:00:56;;;;;;;16.23;10.85;;;;;;;11.63;45.74;101862.84;5054966;28;20066;-79
2023/04/16 10:03:31;;;;;;;15.90;10.87;;;;;;;11.64;45.84;101858.22;5074727;28;20043;-79
2023/04/16 10:06:01;;;;;;;16.80;10.57;;;;;;;11.69;45.79;101853.28;5055186;28;20055;-79
2023/04/16 10:08:29;;;;;;;13.95;10.05;;;;;;;11.73;46.11;101863.00;5051728;28;20047;-79
2023/04/16 10:10:58;;;;;;;16.58;11.25;;;;;;;11.75;45.77;101861.03;5077240;28;20044;-81
2023/04/16 10:13:26;;;;;;;16.35;11.23;;;;;;;11.79;45.84;101865.28;5056173;28;20726;-80
2023/04/16 10:28:14;;;;;;;15.27;11.02;;;;;;;11.87;44.86;101872.94;4877209;29;20521;-83
2023/04/16 10:30:51;;;;;;;14.63;10.38;;;;;;;11.92;45.23;101871.56;4887627;29;20059;-77
2023/04/16 10:33:23;;;;;;;15.65;11.05;;;;;;;11.97;45.14;101874.81;4892823;28;20561;-85
2023/04/16 10:36:10;;;;;;;18.52;11.65;;;;;;;11.99;45.56;101874.72;5064981;28;20044;-85
2023/04/16 10:38:42;;;;;;;15.45;9.52;;;;;;;12.04;45.32;101872.50;5083053;28;20048;-85
2023/04/16 10:41:12;;;;;;;14.93;10.48;;;;;;;12.04;45.29;101873.38;5068749;28;20044;-84
2023/04/16 10:43:43;;;;;;;17.90;10.98;;;;;;;12.12;45.19;101872.78;5061848;28;20040;-77
2023/04/16 10:46:19;;;;;;;15.15;10.90;;;;;;;12.17;45.33;101870.53;5065546;28;20123;-76
2023/04/16 10:48:47;;;;;;;14.80;9.48;;;;;;;12.19;45.64;101865.81;5076168;28;20052;-75
2023/04/16 10:59:33;;;;;;;14.57;9.55;;;;;;;12.33;44.69;101870.19;5097624;28;20036;-88
2023/04/16 11:02:12;;;;;;;14.65;10.60;;;;;;;12.40;44.90;101864.09;5022139;28;20481;-88
2023/04/16 11:04:45;;;;;;;15.07;10.85;;;;;;;12.46;44.40;101865.47;5070841;28;20067;-87
2023/04/16 11:07:20;;;;;;;15.23;10.63;;;;;;;12.47;45.05;101865.34;5078938;28;20054;-86
2023/04/16 11:09:58;;;;;;;13.82;10.23;;;;;;;12.55;44.76;101867.47;5077055;28;20075;-87
2023/04/16 11:12:40;;;;;;;12.38;9.95;;;;;;;12.59;44.26;101869.00;5067759;28;20051;-87
2023/04/16 11:15:18;;;;;;;14.32;10.57;;;;;;;12.61;43.99;101864.28;5069844;28;20055;-86
2023/04/16 11:17:47;;;;;;;12.30;9.65;;;;;;;12.61;44.24;101864.28;5056928;22;20423;-71
2023/04/16 11:20:17;;;;;;;13.80;10.15;;;;;;;12.65;43.84;101870.41;5066545;28;20091;-70
2023/04/16 11:22:47;;;;;;;13.65;9.45;;;;;;;12.64;44.26;101868.66;5066718;28;20045;-70
2023/04/16 11:25:20;;;;;;;14.00;10.45;;;;;;;12.67;43.37;101869.28;5067143;28;20036;-70
2023/04/16 11:27:48;;;;;;;;;;;;;;;12.41;44.15;101870.47;5084158;28;20206;-64
2023/04/16 11:30:18;;;;;;;11.85;8.18;;;;;;;12.67;44.00;101868.41;5072688;28;19931;-63
2023/04/16 11:32:46;;;;;;;11.27;9.07;;;;;;;12.71;43.55;101872.66;5077802;28;20056;-64
2023/04/16 11:35:16;;;;;;;12.50;10.18;;;;;;;12.75;43.38;101875.03;5081788;28;20071;-70
2023/04/16 11:37:45;;;;;;;13.18;10.13;;;;;;;12.77;43.47;101875.81;5079348;28;20051;-70
2023/04/16 11:40:13;;;;;;;12.13;9.98;;;;;;;12.78;42.91;101873.94;5083981;28;20036;-70